Terminal Aerodrome Forecast
Issued by NWS Portland, ME

Home | Current Version | Previous Version | Text Only | Print | Product List | Glossary On
Versions: 1 2 3 4 5 6 7 8 9 10 11 12 13 14 15 16 17 18 19 20 21 22 23 24 25 26
000
FTUS41 KGYX 011116 AAE
TAFPWM
TAF AMD
KPWM 011116Z 0111/0206 18006KT 1 1/2SM BR OVC003
      TEMPO 0112/0113 4SM BR BKN009
     FM011300 26003KT 4SM BR OVC002
     FM011330 18006KT P6SM BKN250
     FM020000 16003KT 4SM HZ BR BKN250
     FM020500 VRB03KT 3/4SM BR BKN002=

USA.gov is the U.S. government's official web portal to all federal, state and local government web resources and services.